Hlavní strana
METAR-TAF:

METAR-TAF

Letiště :

Myrtle Beach, Jižní Karolína, Spojené státy americké

zeměpisná šířka: 33-41N, zeměpisná délka: 078-56W, výška: 8 m

Aktuální stav počasí

Zpráva byla vytvořena před 1 hodinou a 2 minutami, v 15:56 UTC
Západoseverozápadní vítr 17 kt s nárazy do 23 kt
Teplota 10°C
Vlhkost vzduchu 43%
Tlak 1017 hPa
Viditelnost: 16.1 km
Jasno

METAR: KMYR 271556Z 29017G23KT 10SM CLR 10/M02 A3004 RMK AO2 SLP172 T01001022

Čas: 11:58 (16:58 UTC)

Předpověď počasí

Zpráva byla vytvořena před 5 hodinami a 38 minutami, v 11:20 UTC
Předpověď platná od 27 v 12 UTC do 28 v 12 UTC
Západní vítr 13 kt
Viditelnost: 10 km
Jasno
Od 27 v 1500 UTC
Severozápadní vítr 10 kt s nárazy do 17 kt
Viditelnost: 10 km
Jasno
Od 27 v 2200 UTC
Západní vítr 8 kt
Viditelnost: 10 km
Jasno

TAF: KMYR 271120Z 2712/2812 28013KT P6SM SKC FM271500 31010G17KT P6SM SKC FM272200 27008KT P6SM SKC

Stav a předpovědi počasí z více než 4 000 letišť (zprávy METAR a TAF).

Červené a žluté tečky na mapě představují dostupné meteorologické stanice.

Když kurzor umístíte na tečku, zobrazí se název stanice.

Pak kliknutím zobrazíte stav a předpověď počasí.

Chcete-li změnit mapu, kliknutím na zelené tlačítko se znaménkem +mapu přiblížíte, kliknutím na zelené tlačítko se znaménkem – mapu oddálíte a kliknutím na zelené šipky přejdete na sousední mapy.


METAR-TAF: